sensor_id;sensor_type;location;lat;lon;timestamp;P1;durP1;ratioP1;P2;durP2;ratioP2
49223;SDS011;35050;51.316;5.994;2022-09-09T00:03:12;0.22;;;0.22;;
49223;SDS011;35050;51.316;5.994;2022-09-09T00:11:14;0.35;;;0.20;;
49223;SDS011;35050;51.316;5.994;2022-09-09T00:13:50;0.20;;;0.20;;
49223;SDS011;35050;51.316;5.994;2022-09-09T00:16:24;0.45;;;0.20;;
49223;SDS011;35050;51.316;5.994;2022-09-09T00:21:45;0.10;;;0.10;;
49223;SDS011;35050;51.316;5.994;2022-09-09T00:24:29;0.20;;;0.20;;
49223;SDS011;35050;51.316;5.994;2022-09-09T00:27:08;0.38;;;0.20;;
49223;SDS011;35050;51.316;5.994;2022-09-09T00:30:26;0.20;;;0.20;;
49223;SDS011;35050;51.316;5.994;2022-09-09T00:32:47;0.35;;;0.20;;
49223;SDS011;35050;51.316;5.994;2022-09-09T00:35:24;0.40;;;0.40;;
49223;SDS011;35050;51.316;5.994;2022-09-09T00:37:56;0.32;;;0.28;;
49223;SDS011;35050;51.316;5.994;2022-09-09T00:48:25;0.80;;;0.35;;
49223;SDS011;35050;51.316;5.994;2022-09-09T00:54:52;0.88;;;0.20;;
49223;SDS011;35050;51.316;5.994;2022-09-09T00:57:03;0.45;;;0.25;;
49223;SDS011;35050;51.316;5.994;2022-09-09T01:03:29;0.50;;;0.20;;
49223;SDS011;35050;51.316;5.994;2022-09-09T01:10:59;0.15;;;0.15;;
49223;SDS011;35050;51.316;5.994;2022-09-09T01:13:34;0.52;;;0.30;;
49223;SDS011;35050;51.316;5.994;2022-09-09T01:16:02;0.57;;;0.22;;
49223;SDS011;35050;51.316;5.994;2022-09-09T01:18:33;0.73;;;0.20;;
49223;SDS011;35050;51.316;5.994;2022-09-09T01:26:44;2.35;;;0.40;;
49223;SDS011;35050;51.316;5.994;2022-09-09T01:29:14;0.20;;;0.20;;
49223;SDS011;35050;51.316;5.994;2022-09-09T01:31:43;0.28;;;0.20;;
49223;SDS011;35050;51.316;5.994;2022-09-09T01:34:18;0.60;;;0.40;;
49223;SDS011;35050;51.316;5.994;2022-09-09T01:36:46;1.05;;;0.40;;
49223;SDS011;35050;51.316;5.994;2022-09-09T01:39:22;0.82;;;0.80;;
49223;SDS011;35050;51.316;5.994;2022-09-09T01:41:47;1.63;;;0.80;;
49223;SDS011;35050;51.316;5.994;2022-09-09T01:44:13;0.60;;;0.60;;
49223;SDS011;35050;51.316;5.994;2022-09-09T01:46:39;0.63;;;0.43;;
49223;SDS011;35050;51.316;5.994;2022-09-09T01:49:05;1.30;;;0.60;;
49223;SDS011;35050;51.316;5.994;2022-09-09T01:51:33;0.60;;;0.40;;
49223;SDS011;35050;51.316;5.994;2022-09-09T01:54:00;0.30;;;0.30;;
49223;SDS011;35050;51.316;5.994;2022-09-09T02:02:19;0.98;;;0.40;;
49223;SDS011;35050;51.316;5.994;2022-09-09T02:04:54;1.27;;;0.40;;
49223;SDS011;35050;51.316;5.994;2022-09-09T02:07:39;0.43;;;0.32;;
49223;SDS011;35050;51.316;5.994;2022-09-09T02:10:10;0.90;;;0.47;;
49223;SDS011;35050;51.316;5.994;2022-09-09T02:12:49;0.75;;;0.45;;
49223;SDS011;35050;51.316;5.994;2022-09-09T02:15:30;0.40;;;0.40;;
49223;SDS011;35050;51.316;5.994;2022-09-09T02:18:01;0.45;;;0.45;;
49223;SDS011;35050;51.316;5.994;2022-09-09T02:20:32;0.57;;;0.35;;
49223;SDS011;35050;51.316;5.994;2022-09-09T02:22:58;0.85;;;0.43;;
49223;SDS011;35050;51.316;5.994;2022-09-09T02:25:26;0.45;;;0.28;;
49223;SDS011;35050;51.316;5.994;2022-09-09T02:27:54;1.05;;;0.30;;
49223;SDS011;35050;51.316;5.994;2022-09-09T02:30:23;0.35;;;0.28;;
49223;SDS011;35050;51.316;5.994;2022-09-09T02:32:49;0.45;;;0.40;;
49223;SDS011;35050;51.316;5.994;2022-09-09T02:35:19;0.50;;;0.30;;
49223;SDS011;35050;51.316;5.994;2022-09-09T02:37:49;0.45;;;0.20;;
49223;SDS011;35050;51.316;5.994;2022-09-09T02:40:17;0.52;;;0.40;;
49223;SDS011;35050;51.316;5.994;2022-09-09T02:42:44;1.35;;;0.70;;
49223;SDS011;35050;51.316;5.994;2022-09-09T02:45:12;2.55;;;0.40;;
49223;SDS011;35050;51.316;5.994;2022-09-09T02:48:03;0.40;;;0.40;;
49223;SDS011;35050;51.316;5.994;2022-09-09T02:50:34;0.82;;;0.45;;
49223;SDS011;35050;51.316;5.994;2022-09-09T02:53:06;0.95;;;0.70;;
49223;SDS011;35050;51.316;5.994;2022-09-09T02:55:49;0.50;;;0.38;;
49223;SDS011;35050;51.316;5.994;2022-09-09T02:58:25;1.08;;;0.55;;
49223;SDS011;35050;51.316;5.994;2022-09-09T03:00:51;2.88;;;0.30;;
49223;SDS011;35050;51.316;5.994;2022-09-09T03:03:18;0.50;;;0.40;;
49223;SDS011;35050;51.316;5.994;2022-09-09T03:05:44;0.65;;;0.35;;
49223;SDS011;35050;51.316;5.994;2022-09-09T03:08:11;1.45;;;0.47;;
49223;SDS011;35050;51.316;5.994;2022-09-09T03:10:39;0.60;;;0.40;;
49223;SDS011;35050;51.316;5.994;2022-09-09T03:13:04;0.75;;;0.30;;
49223;SDS011;35050;51.316;5.994;2022-09-09T03:15:31;0.93;;;0.32;;
49223;SDS011;35050;51.316;5.994;2022-09-09T03:17:58;0.70;;;0.30;;
49223;SDS011;35050;51.316;5.994;2022-09-09T03:20:24;1.02;;;0.52;;
49223;SDS011;35050;51.316;5.994;2022-09-09T03:22:53;0.60;;;0.40;;
49223;SDS011;35050;51.316;5.994;2022-09-09T03:25:20;0.45;;;0.30;;
49223;SDS011;35050;51.316;5.994;2022-09-09T03:27:48;0.52;;;0.30;;
49223;SDS011;35050;51.316;5.994;2022-09-09T03:30:15;3.20;;;0.30;;
49223;SDS011;35050;51.316;5.994;2022-09-09T03:32:41;0.52;;;0.30;;
49223;SDS011;35050;51.316;5.994;2022-09-09T03:35:06;2.00;;;0.50;;
49223;SDS011;35050;51.316;5.994;2022-09-09T03:37:34;1.05;;;0.40;;
49223;SDS011;35050;51.316;5.994;2022-09-09T03:39:59;0.70;;;0.30;;
49223;SDS011;35050;51.316;5.994;2022-09-09T03:42:25;0.40;;;0.40;;
49223;SDS011;35050;51.316;5.994;2022-09-09T03:44:51;1.00;;;0.50;;
49223;SDS011;35050;51.316;5.994;2022-09-09T03:47:17;0.68;;;0.40;;
49223;SDS011;35050;51.316;5.994;2022-09-09T03:49:46;0.50;;;0.40;;
49223;SDS011;35050;51.316;5.994;2022-09-09T03:52:13;0.93;;;0.40;;
49223;SDS011;35050;51.316;5.994;2022-09-09T03:54:39;3.25;;;1.35;;
49223;SDS011;35050;51.316;5.994;2022-09-09T03:57:07;1.27;;;0.47;;
49223;SDS011;35050;51.316;5.994;2022-09-09T03:59:33;2.28;;;0.60;;
49223;SDS011;35050;51.316;5.994;2022-09-09T04:02:00;1.08;;;0.40;;
49223;SDS011;35050;51.316;5.994;2022-09-09T04:04:25;0.43;;;0.20;;
49223;SDS011;35050;51.316;5.994;2022-09-09T04:06:52;2.10;;;0.50;;
49223;SDS011;35050;51.316;5.994;2022-09-09T04:09:18;1.25;;;0.40;;
49223;SDS011;35050;51.316;5.994;2022-09-09T04:11:44;1.25;;;0.40;;
49223;SDS011;35050;51.316;5.994;2022-09-09T04:14:11;0.60;;;0.45;;
49223;SDS011;35050;51.316;5.994;2022-09-09T04:16:37;0.80;;;0.50;;
49223;SDS011;35050;51.316;5.994;2022-09-09T04:19:09;1.35;;;0.40;;
49223;SDS011;35050;51.316;5.994;2022-09-09T04:21:37;1.48;;;0.40;;
49223;SDS011;35050;51.316;5.994;2022-09-09T04:24:04;0.63;;;0.30;;
49223;SDS011;35050;51.316;5.994;2022-09-09T04:26:31;0.63;;;0.22;;
49223;SDS011;35050;51.316;5.994;2022-09-09T04:28:57;0.73;;;0.38;;
49223;SDS011;35050;51.316;5.994;2022-09-09T04:31:22;0.75;;;0.30;;
49223;SDS011;35050;51.316;5.994;2022-09-09T04:33:49;0.98;;;0.45;;
49223;SDS011;35050;51.316;5.994;2022-09-09T04:36:15;2.53;;;0.40;;
49223;SDS011;35050;51.316;5.994;2022-09-09T04:38:43;0.93;;;0.38;;
49223;SDS011;35050;51.316;5.994;2022-09-09T04:41:09;2.75;;;0.50;;
49223;SDS011;35050;51.316;5.994;2022-09-09T04:43:36;0.80;;;0.40;;
49223;SDS011;35050;51.316;5.994;2022-09-09T04:46:02;2.35;;;0.43;;
49223;SDS011;35050;51.316;5.994;2022-09-09T04:48:28;0.90;;;0.70;;
49223;SDS011;35050;51.316;5.994;2022-09-09T04:50:57;1.52;;;0.50;;
49223;SDS011;35050;51.316;5.994;2022-09-09T04:53:24;0.63;;;0.40;;
49223;SDS011;35050;51.316;5.994;2022-09-09T04:55:51;0.75;;;0.20;;
49223;SDS011;35050;51.316;5.994;2022-09-09T04:58:18;2.05;;;0.60;;
49223;SDS011;35050;51.316;5.994;2022-09-09T05:00:44;1.30;;;0.40;;
49223;SDS011;35050;51.316;5.994;2022-09-09T05:03:09;1.77;;;0.55;;
49223;SDS011;35050;51.316;5.994;2022-09-09T05:05:35;2.83;;;0.45;;
49223;SDS011;35050;51.316;5.994;2022-09-09T05:08:05;1.42;;;0.50;;
49223;SDS011;35050;51.316;5.994;2022-09-09T05:10:33;1.38;;;0.47;;
49223;SDS011;35050;51.316;5.994;2022-09-09T05:13:01;1.30;;;0.52;;
49223;SDS011;35050;51.316;5.994;2022-09-09T05:15:27;1.02;;;0.45;;
49223;SDS011;35050;51.316;5.994;2022-09-09T05:17:56;2.28;;;0.60;;
49223;SDS011;35050;51.316;5.994;2022-09-09T05:20:26;0.95;;;0.43;;
49223;SDS011;35050;51.316;5.994;2022-09-09T05:22:53;0.93;;;0.50;;
49223;SDS011;35050;51.316;5.994;2022-09-09T05:25:20;1.05;;;0.45;;
49223;SDS011;35050;51.316;5.994;2022-09-09T05:27:47;0.98;;;0.43;;
49223;SDS011;35050;51.316;5.994;2022-09-09T05:30:14;3.75;;;0.60;;
49223;SDS011;35050;51.316;5.994;2022-09-09T05:32:40;1.83;;;0.95;;
49223;SDS011;35050;51.316;5.994;2022-09-09T05:35:06;0.90;;;0.35;;
49223;SDS011;35050;51.316;5.994;2022-09-09T05:37:32;2.47;;;0.63;;
49223;SDS011;35050;51.316;5.994;2022-09-09T05:39:57;1.30;;;0.63;;
49223;SDS011;35050;51.316;5.994;2022-09-09T05:42:24;5.28;;;1.38;;
49223;SDS011;35050;51.316;5.994;2022-09-09T05:44:49;0.45;;;0.30;;
49223;SDS011;35050;51.316;5.994;2022-09-09T05:47:16;1.60;;;0.65;;
49223;SDS011;35050;51.316;5.994;2022-09-09T05:49:42;1.25;;;0.57;;
49223;SDS011;35050;51.316;5.994;2022-09-09T05:52:09;1.50;;;0.70;;
49223;SDS011;35050;51.316;5.994;2022-09-09T05:54:35;1.88;;;0.65;;
49223;SDS011;35050;51.316;5.994;2022-09-09T05:57:01;0.52;;;0.43;;
49223;SDS011;35050;51.316;5.994;2022-09-09T05:59:28;1.42;;;0.60;;
49223;SDS011;35050;51.316;5.994;2022-09-09T06:01:53;1.38;;;0.60;;
49223;SDS011;35050;51.316;5.994;2022-09-09T06:04:19;1.35;;;0.40;;
49223;SDS011;35050;51.316;5.994;2022-09-09T06:06:47;1.58;;;0.50;;
49223;SDS011;35050;51.316;5.994;2022-09-09T06:09:13;1.05;;;0.52;;
49223;SDS011;35050;51.316;5.994;2022-09-09T06:11:40;1.27;;;0.50;;
49223;SDS011;35050;51.316;5.994;2022-09-09T06:14:07;3.83;;;0.70;;
49223;SDS011;35050;51.316;5.994;2022-09-09T06:16:33;2.20;;;0.60;;
49223;SDS011;35050;51.316;5.994;2022-09-09T06:18:59;2.38;;;0.93;;
49223;SDS011;35050;51.316;5.994;2022-09-09T06:21:30;3.55;;;1.05;;
49223;SDS011;35050;51.316;5.994;2022-09-09T06:24:02;2.40;;;0.68;;
49223;SDS011;35050;51.316;5.994;2022-09-09T06:26:32;1.48;;;0.75;;
49223;SDS011;35050;51.316;5.994;2022-09-09T06:29:03;2.13;;;0.80;;
49223;SDS011;35050;51.316;5.994;2022-09-09T06:31:30;1.90;;;0.75;;
49223;SDS011;35050;51.316;5.994;2022-09-09T06:33:58;3.25;;;1.10;;
49223;SDS011;35050;51.316;5.994;2022-09-09T06:38:52;3.42;;;1.00;;
49223;SDS011;35050;51.316;5.994;2022-09-09T06:41:20;3.40;;;0.93;;
49223;SDS011;35050;51.316;5.994;2022-09-09T06:43:46;2.03;;;0.70;;
49223;SDS011;35050;51.316;5.994;2022-09-09T06:46:14;4.97;;;1.20;;
49223;SDS011;35050;51.316;5.994;2022-09-09T06:48:41;3.17;;;0.90;;
49223;SDS011;35050;51.316;5.994;2022-09-09T06:51:10;3.08;;;1.05;;
49223;SDS011;35050;51.316;5.994;2022-09-09T06:53:38;5.90;;;1.10;;
49223;SDS011;35050;51.316;5.994;2022-09-09T06:58:40;1.95;;;0.77;;
49223;SDS011;35050;51.316;5.994;2022-09-09T07:01:08;4.18;;;0.90;;
49223;SDS011;35050;51.316;5.994;2022-09-09T07:03:35;1.80;;;0.90;;
49223;SDS011;35050;51.316;5.994;2022-09-09T07:06:02;2.60;;;1.13;;
49223;SDS011;35050;51.316;5.994;2022-09-09T07:08:28;2.25;;;0.73;;
49223;SDS011;35050;51.316;5.994;2022-09-09T07:10:54;2.45;;;0.80;;
49223;SDS011;35050;51.316;5.994;2022-09-09T07:13:30;1.77;;;0.70;;
49223;SDS011;35050;51.316;5.994;2022-09-09T07:16:07;2.20;;;0.95;;
49223;SDS011;35050;51.316;5.994;2022-09-09T07:18:34;4.07;;;1.27;;
49223;SDS011;35050;51.316;5.994;2022-09-09T07:21:01;2.33;;;0.70;;
49223;SDS011;35050;51.316;5.994;2022-09-09T07:23:29;5.13;;;0.95;;
49223;SDS011;35050;51.316;5.994;2022-09-09T07:25:56;2.00;;;0.80;;
49223;SDS011;35050;51.316;5.994;2022-09-09T07:28:23;3.42;;;1.13;;
49223;SDS011;35050;51.316;5.994;2022-09-09T07:30:53;3.28;;;1.15;;
49223;SDS011;35050;51.316;5.994;2022-09-09T07:33:23;1.98;;;0.95;;
49223;SDS011;35050;51.316;5.994;2022-09-09T07:35:51;1.27;;;0.80;;
49223;SDS011;35050;51.316;5.994;2022-09-09T07:38:18;4.00;;;1.08;;
49223;SDS011;35050;51.316;5.994;2022-09-09T07:40:44;4.32;;;1.17;;
49223;SDS011;35050;51.316;5.994;2022-09-09T07:43:10;3.42;;;1.45;;
49223;SDS011;35050;51.316;5.994;2022-09-09T07:45:38;4.60;;;0.95;;
49223;SDS011;35050;51.316;5.994;2022-09-09T07:48:05;2.22;;;0.70;;
49223;SDS011;35050;51.316;5.994;2022-09-09T07:50:31;2.25;;;0.95;;
49223;SDS011;35050;51.316;5.994;2022-09-09T07:52:57;2.83;;;1.38;;
49223;SDS011;35050;51.316;5.994;2022-09-09T07:55:23;3.25;;;0.98;;
49223;SDS011;35050;51.316;5.994;2022-09-09T07:57:53;3.83;;;1.17;;
49223;SDS011;35050;51.316;5.994;2022-09-09T08:00:19;3.80;;;1.50;;
49223;SDS011;35050;51.316;5.994;2022-09-09T08:02:47;3.58;;;1.30;;
49223;SDS011;35050;51.316;5.994;2022-09-09T08:05:13;4.30;;;1.10;;
49223;SDS011;35050;51.316;5.994;2022-09-09T08:07:40;4.15;;;1.23;;
49223;SDS011;35050;51.316;5.994;2022-09-09T08:10:05;1.83;;;0.70;;
49223;SDS011;35050;51.316;5.994;2022-09-09T08:12:31;3.10;;;1.08;;
49223;SDS011;35050;51.316;5.994;2022-09-09T08:14:57;2.92;;;0.95;;
49223;SDS011;35050;51.316;5.994;2022-09-09T08:17:23;2.65;;;0.90;;
49223;SDS011;35050;51.316;5.994;2022-09-09T08:19:49;2.58;;;1.38;;
49223;SDS011;35050;51.316;5.994;2022-09-09T08:22:14;2.25;;;1.08;;
49223;SDS011;35050;51.316;5.994;2022-09-09T08:24:40;3.88;;;1.10;;
49223;SDS011;35050;51.316;5.994;2022-09-09T08:27:06;2.25;;;0.70;;
49223;SDS011;35050;51.316;5.994;2022-09-09T08:29:31;1.02;;;0.55;;
49223;SDS011;35050;51.316;5.994;2022-09-09T08:31:57;1.90;;;0.80;;
49223;SDS011;35050;51.316;5.994;2022-09-09T08:34:24;2.33;;;0.80;;
49223;SDS011;35050;51.316;5.994;2022-09-09T08:36:52;4.13;;;0.90;;
49223;SDS011;35050;51.316;5.994;2022-09-09T08:39:19;3.95;;;1.52;;
49223;SDS011;35050;51.316;5.994;2022-09-09T08:42:08;2.30;;;1.10;;
49223;SDS011;35050;51.316;5.994;2022-09-09T08:49:45;2.95;;;1.10;;
49223;SDS011;35050;51.316;5.994;2022-09-09T08:58:25;3.33;;;1.10;;
49223;SDS011;35050;51.316;5.994;2022-09-09T09:00:57;3.10;;;1.00;;
49223;SDS011;35050;51.316;5.994;2022-09-09T09:06:39;2.03;;;0.77;;
49223;SDS011;35050;51.316;5.994;2022-09-09T09:09:26;3.63;;;1.23;;
49223;SDS011;35050;51.316;5.994;2022-09-09T09:12:23;2.55;;;0.98;;
49223;SDS011;35050;51.316;5.994;2022-09-09T09:14:51;2.35;;;0.90;;
49223;SDS011;35050;51.316;5.994;2022-09-09T09:17:20;3.45;;;1.35;;
49223;SDS011;35050;51.316;5.994;2022-09-09T09:19:48;1.73;;;0.70;;
49223;SDS011;35050;51.316;5.994;2022-09-09T09:22:32;4.03;;;1.13;;
49223;SDS011;35050;51.316;5.994;2022-09-09T09:25:31;2.17;;;0.77;;
49223;SDS011;35050;51.316;5.994;2022-09-09T09:28:02;2.55;;;1.15;;
49223;SDS011;35050;51.316;5.994;2022-09-09T09:30:46;3.95;;;1.27;;
49223;SDS011;35050;51.316;5.994;2022-09-09T09:33:26;2.03;;;0.63;;
49223;SDS011;35050;51.316;5.994;2022-09-09T09:35:55;2.25;;;0.77;;
49223;SDS011;35050;51.316;5.994;2022-09-09T09:38:22;2.17;;;0.70;;
49223;SDS011;35050;51.316;5.994;2022-09-09T09:40:50;2.78;;;0.77;;
49223;SDS011;35050;51.316;5.994;2022-09-09T09:43:36;2.20;;;0.90;;
49223;SDS011;35050;51.316;5.994;2022-09-09T09:46:05;3.00;;;0.70;;
49223;SDS011;35050;51.316;5.994;2022-09-09T09:48:44;3.25;;;1.00;;
49223;SDS011;35050;51.316;5.994;2022-09-09T09:51:12;2.78;;;0.57;;
49223;SDS011;35050;51.316;5.994;2022-09-09T09:53:41;1.25;;;0.68;;
49223;SDS011;35050;51.316;5.994;2022-09-09T09:56:08;3.08;;;0.90;;
49223;SDS011;35050;51.316;5.994;2022-09-09T09:58:57;4.65;;;0.98;;
49223;SDS011;35050;51.316;5.994;2022-09-09T10:04:00;3.85;;;0.90;;
49223;SDS011;35050;51.316;5.994;2022-09-09T10:09:01;1.50;;;0.90;;
49223;SDS011;35050;51.316;5.994;2022-09-09T10:27:27;3.35;;;1.00;;
49223;SDS011;35050;51.316;5.994;2022-09-09T10:30:18;2.83;;;0.90;;
49223;SDS011;35050;51.316;5.994;2022-09-09T10:35:58;2.05;;;0.65;;
49223;SDS011;35050;51.316;5.994;2022-09-09T10:38:48;1.85;;;0.70;;
49223;SDS011;35050;51.316;5.994;2022-09-09T10:53:00;2.42;;;0.60;;
49223;SDS011;35050;51.316;5.994;2022-09-09T10:55:37;1.67;;;0.80;;
49223;SDS011;35050;51.316;5.994;2022-09-09T10:58:12;1.63;;;0.85;;
49223;SDS011;35050;51.316;5.994;2022-09-09T11:00:49;1.92;;;0.70;;
49223;SDS011;35050;51.316;5.994;2022-09-09T11:03:26;0.63;;;0.47;;
49223;SDS011;35050;51.316;5.994;2022-09-09T11:06:03;1.75;;;0.70;;
49223;SDS011;35050;51.316;5.994;2022-09-09T11:08:32;6.07;;;0.82;;
49223;SDS011;35050;51.316;5.994;2022-09-09T11:11:05;2.47;;;0.60;;
49223;SDS011;35050;51.316;5.994;2022-09-09T11:13:55;1.10;;;0.45;;
49223;SDS011;35050;51.316;5.994;2022-09-09T11:19:09;1.17;;;0.50;;
49223;SDS011;35050;51.316;5.994;2022-09-09T11:21:47;1.33;;;0.52;;
49223;SDS011;35050;51.316;5.994;2022-09-09T11:26:57;2.10;;;0.52;;
49223;SDS011;35050;51.316;5.994;2022-09-09T11:40:37;1.88;;;0.95;;
49223;SDS011;35050;51.316;5.994;2022-09-09T11:45:52;1.67;;;0.80;;
49223;SDS011;35050;51.316;5.994;2022-09-09T11:48:23;2.80;;;0.95;;
49223;SDS011;35050;51.316;5.994;2022-09-09T11:53:50;1.85;;;0.73;;
49223;SDS011;35050;51.316;5.994;2022-09-09T11:56:28;2.35;;;0.80;;
49223;SDS011;35050;51.316;5.994;2022-09-09T11:59:00;3.10;;;0.85;;
49223;SDS011;35050;51.316;5.994;2022-09-09T12:01:29;3.67;;;1.08;;
49223;SDS011;35050;51.316;5.994;2022-09-09T12:06:45;2.17;;;0.80;;
49223;SDS011;35050;51.316;5.994;2022-09-09T12:09:25;2.20;;;0.70;;
49223;SDS011;35050;51.316;5.994;2022-09-09T12:14:38;1.20;;;0.60;;
49223;SDS011;35050;51.316;5.994;2022-09-09T12:19:45;2.20;;;0.88;;
49223;SDS011;35050;51.316;5.994;2022-09-09T12:30:49;1.88;;;0.77;;
49223;SDS011;35050;51.316;5.994;2022-09-09T12:33:36;4.35;;;0.73;;
49223;SDS011;35050;51.316;5.994;2022-09-09T12:36:09;1.73;;;1.05;;
49223;SDS011;35050;51.316;5.994;2022-09-09T12:38:39;2.58;;;0.70;;
49223;SDS011;35050;51.316;5.994;2022-09-09T12:41:15;1.75;;;0.73;;
49223;SDS011;35050;51.316;5.994;2022-09-09T12:43:47;2.05;;;0.75;;
49223;SDS011;35050;51.316;5.994;2022-09-09T12:46:48;2.45;;;1.00;;
49223;SDS011;35050;51.316;5.994;2022-09-09T12:51:56;4.75;;;1.20;;
49223;SDS011;35050;51.316;5.994;2022-09-09T12:54:22;2.38;;;1.00;;
49223;SDS011;35050;51.316;5.994;2022-09-09T12:56:48;2.33;;;1.02;;
49223;SDS011;35050;51.316;5.994;2022-09-09T12:59:25;3.40;;;1.10;;
49223;SDS011;35050;51.316;5.994;2022-09-09T13:02:00;2.55;;;0.80;;
49223;SDS011;35050;51.316;5.994;2022-09-09T13:04:26;3.33;;;1.10;;
49223;SDS011;35050;51.316;5.994;2022-09-09T13:06:52;2.78;;;1.00;;
49223;SDS011;35050;51.316;5.994;2022-09-09T13:09:17;2.13;;;0.98;;
49223;SDS011;35050;51.316;5.994;2022-09-09T13:11:48;1.73;;;0.70;;
49223;SDS011;35050;51.316;5.994;2022-09-09T13:14:30;2.78;;;0.90;;
49223;SDS011;35050;51.316;5.994;2022-09-09T13:17:00;3.72;;;0.80;;
49223;SDS011;35050;51.316;5.994;2022-09-09T13:19:37;3.75;;;0.73;;
49223;SDS011;35050;51.316;5.994;2022-09-09T13:22:21;2.10;;;0.77;;
49223;SDS011;35050;51.316;5.994;2022-09-09T13:24:46;3.47;;;1.00;;
49223;SDS011;35050;51.316;5.994;2022-09-09T13:27:29;1.58;;;0.90;;
49223;SDS011;35050;51.316;5.994;2022-09-09T13:29:55;2.78;;;0.77;;
49223;SDS011;35050;51.316;5.994;2022-09-09T13:32:22;3.30;;;0.80;;
49223;SDS011;35050;51.316;5.994;2022-09-09T13:37:35;2.30;;;0.70;;
49223;SDS011;35050;51.316;5.994;2022-09-09T13:40:02;2.03;;;0.65;;
49223;SDS011;35050;51.316;5.994;2022-09-09T13:42:35;2.60;;;0.80;;
49223;SDS011;35050;51.316;5.994;2022-09-09T13:45:05;2.53;;;0.70;;
49223;SDS011;35050;51.316;5.994;2022-09-09T13:47:32;2.60;;;0.70;;
49223;SDS011;35050;51.316;5.994;2022-09-09T13:50:18;1.30;;;0.50;;
49223;SDS011;35050;51.316;5.994;2022-09-09T13:52:50;0.93;;;0.60;;
49223;SDS011;35050;51.316;5.994;2022-09-09T13:55:18;0.88;;;0.50;;
49223;SDS011;35050;51.316;5.994;2022-09-09T14:00:23;0.82;;;0.70;;
49223;SDS011;35050;51.316;5.994;2022-09-09T14:02:49;1.95;;;0.77;;
49223;SDS011;35050;51.316;5.994;2022-09-09T14:05:16;1.23;;;0.75;;
49223;SDS011;35050;51.316;5.994;2022-09-09T14:07:43;3.28;;;0.63;;
49223;SDS011;35050;51.316;5.994;2022-09-09T14:10:10;2.13;;;1.05;;
49223;SDS011;35050;51.316;5.994;2022-09-09T14:12:36;1.15;;;0.63;;
49223;SDS011;35050;51.316;5.994;2022-09-09T14:15:03;2.45;;;0.80;;
49223;SDS011;35050;51.316;5.994;2022-09-09T14:17:30;1.33;;;0.70;;
49223;SDS011;35050;51.316;5.994;2022-09-09T14:19:58;2.28;;;0.60;;
49223;SDS011;35050;51.316;5.994;2022-09-09T14:22:24;2.08;;;0.60;;
49223;SDS011;35050;51.316;5.994;2022-09-09T14:24:50;1.05;;;0.65;;
49223;SDS011;35050;51.316;5.994;2022-09-09T14:27:16;1.00;;;0.50;;
49223;SDS011;35050;51.316;5.994;2022-09-09T14:29:43;1.10;;;0.40;;
49223;SDS011;35050;51.316;5.994;2022-09-09T14:32:10;2.15;;;0.80;;
49223;SDS011;35050;51.316;5.994;2022-09-09T14:34:36;1.65;;;0.73;;
49223;SDS011;35050;51.316;5.994;2022-09-09T14:37:02;2.15;;;0.85;;
49223;SDS011;35050;51.316;5.994;2022-09-09T14:39:28;1.85;;;0.70;;
49223;SDS011;35050;51.316;5.994;2022-09-09T14:41:53;2.33;;;0.70;;
49223;SDS011;35050;51.316;5.994;2022-09-09T14:44:20;1.17;;;0.55;;
49223;SDS011;35050;51.316;5.994;2022-09-09T14:46:45;3.10;;;0.90;;
49223;SDS011;35050;51.316;5.994;2022-09-09T14:49:11;1.33;;;0.63;;
49223;SDS011;35050;51.316;5.994;2022-09-09T14:51:37;5.40;;;1.10;;
49223;SDS011;35050;51.316;5.994;2022-09-09T14:54:04;1.20;;;0.68;;
49223;SDS011;35050;51.316;5.994;2022-09-09T14:56:30;2.35;;;0.98;;
49223;SDS011;35050;51.316;5.994;2022-09-09T14:58:59;1.40;;;0.70;;
49223;SDS011;35050;51.316;5.994;2022-09-09T15:01:28;2.08;;;0.80;;
49223;SDS011;35050;51.316;5.994;2022-09-09T15:03:56;1.27;;;0.70;;
49223;SDS011;35050;51.316;5.994;2022-09-09T15:06:24;1.75;;;0.57;;
49223;SDS011;35050;51.316;5.994;2022-09-09T15:08:51;2.30;;;0.85;;
49223;SDS011;35050;51.316;5.994;2022-09-09T15:11:18;2.67;;;0.88;;
49223;SDS011;35050;51.316;5.994;2022-09-09T15:13:45;3.00;;;0.88;;
49223;SDS011;35050;51.316;5.994;2022-09-09T15:16:16;1.38;;;0.70;;
49223;SDS011;35050;51.316;5.994;2022-09-09T15:18:43;2.08;;;0.85;;
49223;SDS011;35050;51.316;5.994;2022-09-09T15:21:14;1.23;;;0.65;;
49223;SDS011;35050;51.316;5.994;2022-09-09T15:23:41;1.17;;;0.50;;
49223;SDS011;35050;51.316;5.994;2022-09-09T15:26:08;1.65;;;0.60;;
49223;SDS011;35050;51.316;5.994;2022-09-09T15:28:34;1.63;;;0.63;;
49223;SDS011;35050;51.316;5.994;2022-09-09T15:31:04;3.65;;;0.90;;
49223;SDS011;35050;51.316;5.994;2022-09-09T15:33:32;1.70;;;0.63;;
49223;SDS011;35050;51.316;5.994;2022-09-09T15:35:59;2.10;;;0.70;;
49223;SDS011;35050;51.316;5.994;2022-09-09T15:38:24;1.50;;;0.80;;
49223;SDS011;35050;51.316;5.994;2022-09-09T15:40:56;2.03;;;0.70;;
49223;SDS011;35050;51.316;5.994;2022-09-09T15:43:23;1.95;;;0.77;;
49223;SDS011;35050;51.316;5.994;2022-09-09T15:45:51;1.17;;;0.55;;
49223;SDS011;35050;51.316;5.994;2022-09-09T15:48:30;0.77;;;0.50;;
49223;SDS011;35050;51.316;5.994;2022-09-09T15:51:01;1.30;;;0.75;;
49223;SDS011;35050;51.316;5.994;2022-09-09T15:53:28;1.55;;;0.60;;
49223;SDS011;35050;51.316;5.994;2022-09-09T15:55:55;1.08;;;0.52;;
49223;SDS011;35050;51.316;5.994;2022-09-09T15:58:21;1.92;;;0.80;;
49223;SDS011;35050;51.316;5.994;2022-09-09T16:00:46;1.52;;;0.70;;
49223;SDS011;35050;51.316;5.994;2022-09-09T16:03:12;1.40;;;0.50;;
49223;SDS011;35050;51.316;5.994;2022-09-09T16:05:38;1.98;;;0.60;;
49223;SDS011;35050;51.316;5.994;2022-09-09T16:08:03;1.70;;;0.57;;
49223;SDS011;35050;51.316;5.994;2022-09-09T16:10:29;0.80;;;0.50;;
49223;SDS011;35050;51.316;5.994;2022-09-09T16:12:55;1.73;;;0.70;;
49223;SDS011;35050;51.316;5.994;2022-09-09T16:15:21;0.93;;;0.47;;
49223;SDS011;35050;51.316;5.994;2022-09-09T16:17:48;1.17;;;0.40;;
49223;SDS011;35050;51.316;5.994;2022-09-09T16:20:14;0.95;;;0.40;;
49223;SDS011;35050;51.316;5.994;2022-09-09T16:22:39;1.02;;;0.40;;
49223;SDS011;35050;51.316;5.994;2022-09-09T16:25:05;0.45;;;0.40;;
49223;SDS011;35050;51.316;5.994;2022-09-09T16:27:31;0.85;;;0.50;;
49223;SDS011;35050;51.316;5.994;2022-09-09T16:29:57;1.15;;;0.45;;
49223;SDS011;35050;51.316;5.994;2022-09-09T16:32:24;0.85;;;0.32;;
49223;SDS011;35050;51.316;5.994;2022-09-09T16:34:49;0.65;;;0.40;;
49223;SDS011;35050;51.316;5.994;2022-09-09T16:37:15;2.00;;;0.60;;
49223;SDS011;35050;51.316;5.994;2022-09-09T16:39:40;1.05;;;0.55;;
49223;SDS011;35050;51.316;5.994;2022-09-09T16:42:06;1.75;;;0.55;;
49223;SDS011;35050;51.316;5.994;2022-09-09T16:44:32;2.65;;;0.55;;
49223;SDS011;35050;51.316;5.994;2022-09-09T16:46:58;2.47;;;0.68;;
49223;SDS011;35050;51.316;5.994;2022-09-09T16:49:23;0.65;;;0.50;;
49223;SDS011;35050;51.316;5.994;2022-09-09T16:51:49;1.13;;;0.68;;
49223;SDS011;35050;51.316;5.994;2022-09-09T16:54:18;0.50;;;0.38;;
49223;SDS011;35050;51.316;5.994;2022-09-09T16:56:46;0.55;;;0.40;;
49223;SDS011;35050;51.316;5.994;2022-09-09T16:59:13;0.70;;;0.40;;
49223;SDS011;35050;51.316;5.994;2022-09-09T17:01:41;1.35;;;0.40;;
49223;SDS011;35050;51.316;5.994;2022-09-09T17:04:12;0.85;;;0.47;;
49223;SDS011;35050;51.316;5.994;2022-09-09T17:06:41;0.55;;;0.32;;
49223;SDS011;35050;51.316;5.994;2022-09-09T17:09:08;0.40;;;0.40;;
49223;SDS011;35050;51.316;5.994;2022-09-09T17:11:35;1.02;;;0.40;;
49223;SDS011;35050;51.316;5.994;2022-09-09T17:14:02;0.40;;;0.30;;
49223;SDS011;35050;51.316;5.994;2022-09-09T17:16:30;0.70;;;0.43;;
49223;SDS011;35050;51.316;5.994;2022-09-09T17:18:59;1.02;;;0.50;;
49223;SDS011;35050;51.316;5.994;2022-09-09T17:21:26;3.67;;;0.55;;
49223;SDS011;35050;51.316;5.994;2022-09-09T17:23:53;1.70;;;0.60;;
49223;SDS011;35050;51.316;5.994;2022-09-09T17:26:20;0.60;;;0.30;;